Terminal Aerodrome Forecast
Issued by NWS

Home | Current Version | Previous Version | Text Only | Print | Product List | Glossary On
Versions: 1 2 3 4 5 6 7 8 9 10 11 12 13 14 15 16
000
FTUS42 TJSJ 302300
TAFKPK
TAF
TKPK 302335Z 3100/3124 19008KT P6SM VCSH FEW018 BKN040
      TEMPO 3100/3102 VRB12G18KT 5SM SHRA SCT015 BKN030
     FM310330 15005KT P6SM -RA SCT018 BKN050 BKN100
     FM311330 15010KT P6SM SCT022 SCT050 SCT120=

USA.gov is the U.S. government's official web portal to all federal, state and local government web resources and services.